createdAt,value
2023-01-25T00:00:06.871Z,15.10
2023-01-25T00:02:33.870Z,15.63
2023-01-25T00:05:00.786Z,15.63
2023-01-25T00:07:27.713Z,16.10
2023-01-25T00:09:54.696Z,17.63
2023-01-25T00:12:21.555Z,18.27
2023-01-25T00:14:48.482Z,19.20
2023-01-25T00:17:15.449Z,18.30
2023-01-25T00:19:42.424Z,22.03
2023-01-25T00:22:09.337Z,15.43
2023-01-25T00:24:36.345Z,17.70
2023-01-25T00:27:03.936Z,18.13
2023-01-25T00:29:30.838Z,16.73
2023-01-25T00:31:57.902Z,18.60
2023-01-25T00:34:24.921Z,16.33
2023-01-25T00:36:57.090Z,17.40
2023-01-25T00:39:26.335Z,19.67
2023-01-25T00:41:53.458Z,18.30
2023-01-25T00:44:20.446Z,16.90
2023-01-25T00:46:47.750Z,19.43
2023-01-25T00:49:23.355Z,18.27
2023-01-25T00:51:51.244Z,16.83
2023-01-25T00:54:18.624Z,16.77
2023-01-25T00:56:46.113Z,15.53
2023-01-25T00:59:14.008Z,15.73
2023-01-25T01:01:42.115Z,16.53
2023-01-25T01:04:09.165Z,13.43
2023-01-25T01:06:40.002Z,14.50
2023-01-25T01:09:11.661Z,15.00
2023-01-25T01:11:38.633Z,18.20
2023-01-25T01:14:05.541Z,18.10
2023-01-25T01:16:32.647Z,18.00
2023-01-25T01:18:59.660Z,13.20
2023-01-25T01:21:26.598Z,14.60
2023-01-25T01:23:54.990Z,16.60
2023-01-25T01:26:22.240Z,15.67
2023-01-25T01:28:49.292Z,18.50
2023-01-25T01:31:23.404Z,16.93
2023-01-25T01:33:55.989Z,15.60
2023-01-25T01:36:25.994Z,13.73
2023-01-25T01:38:53.019Z,15.20
2023-01-25T01:41:20.405Z,16.00
2023-01-25T01:43:47.955Z,15.70
2023-01-25T01:46:38.556Z,13.70
2023-01-25T01:49:13.844Z,16.20
2023-01-25T01:51:49.658Z,16.07
2023-01-25T01:54:19.286Z,20.83
2023-01-25T01:56:59.244Z,15.80
2023-01-25T01:59:31.608Z,16.80
2023-01-25T02:01:58.525Z,15.80
2023-01-25T02:04:27.888Z,17.87
2023-01-25T02:07:08.044Z,15.37
2023-01-25T02:09:36.534Z,16.67
2023-01-25T02:12:06.227Z,17.37
2023-01-25T02:14:34.537Z,17.10
2023-01-25T02:17:01.569Z,15.20
2023-01-25T02:19:57.367Z,22.63
2023-01-25T02:22:31.480Z,17.50
2023-01-25T02:25:13.343Z,15.77
2023-01-25T02:27:45.890Z,15.77
2023-01-25T02:30:13.209Z,14.20
2023-01-25T02:32:40.110Z,13.77
2023-01-25T02:35:08.052Z,13.70
2023-01-25T02:37:35.425Z,18.53
2023-01-25T02:40:02.307Z,18.40
2023-01-25T02:42:32.043Z,17.00
2023-01-25T02:44:59.068Z,16.73
2023-01-25T02:47:25.915Z,15.17
2023-01-25T02:49:52.761Z,18.90
2023-01-25T02:52:19.652Z,16.87
2023-01-25T02:54:46.530Z,17.60
2023-01-25T02:57:13.545Z,15.80
2023-01-25T02:59:40.451Z,17.63
2023-01-25T03:02:07.997Z,16.50
2023-01-25T03:04:34.853Z,18.47
2023-01-25T03:07:01.788Z,16.57
2023-01-25T03:09:28.753Z,17.90
2023-01-25T03:11:55.589Z,18.43
2023-01-25T03:14:22.480Z,18.60
2023-01-25T03:16:49.587Z,14.63
2023-01-25T03:19:16.697Z,19.57
2023-01-25T03:21:43.661Z,17.63
2023-01-25T03:24:11.550Z,16.53
2023-01-25T03:26:58.481Z,16.80
2023-01-25T03:29:25.484Z,21.80
2023-01-25T03:31:52.434Z,17.27
2023-01-25T03:34:19.428Z,13.63
2023-01-25T03:36:46.384Z,15.10
2023-01-25T03:39:13.310Z,17.40
2023-01-25T03:41:40.250Z,16.97
2023-01-25T03:44:07.112Z,20.67
2023-01-25T03:46:33.991Z,20.60
2023-01-25T03:49:00.839Z,21.00
2023-01-25T03:51:27.713Z,18.90
2023-01-25T03:53:54.602Z,22.33
2023-01-25T03:56:21.504Z,15.27
2023-01-25T03:58:48.427Z,20.03
2023-01-25T04:01:15.401Z,20.47
2023-01-25T04:03:42.351Z,16.90
2023-01-25T04:06:09.510Z,21.23
2023-01-25T04:08:37.673Z,17.30
2023-01-25T04:11:09.580Z,19.13
2023-01-25T04:13:37.974Z,18.00
2023-01-25T04:16:06.725Z,17.77
2023-01-25T04:18:33.855Z,18.30
2023-01-25T04:21:00.772Z,16.20
2023-01-25T04:23:27.638Z,18.00
2023-01-25T04:26:01.747Z,18.20
2023-01-25T04:28:28.856Z,17.30
2023-01-25T04:30:58.072Z,16.20
2023-01-25T04:33:25.259Z,18.97
2023-01-25T04:35:52.834Z,19.90
2023-01-25T04:38:20.084Z,17.13
2023-01-25T04:40:47.178Z,20.27
2023-01-25T04:43:15.801Z,18.63
2023-01-25T04:45:42.770Z,18.77
2023-01-25T04:48:11.503Z,21.07
2023-01-25T04:50:39.550Z,17.57
2023-01-25T04:53:07.707Z,22.57
2023-01-25T04:55:35.051Z,23.33
2023-01-25T04:58:02.883Z,20.30
2023-01-25T05:00:31.151Z,21.37
2023-01-25T05:02:58.217Z,21.33
2023-01-25T05:05:25.126Z,22.70
2023-01-25T05:07:52.021Z,24.03
2023-01-25T05:10:19.050Z,22.17
2023-01-25T05:12:45.957Z,19.97
2023-01-25T05:15:13.058Z,21.10
2023-01-25T05:17:40.035Z,18.20
2023-01-25T05:20:07.295Z,22.17
2023-01-25T05:22:34.165Z,18.53
2023-01-25T05:25:02.965Z,18.73
2023-01-25T05:27:29.827Z,22.50
2023-01-25T05:29:57.796Z,21.60
2023-01-25T05:32:25.140Z,22.07
2023-01-25T05:34:52.074Z,20.77
2023-01-25T05:37:20.647Z,21.63
2023-01-25T05:39:47.773Z,21.80
2023-01-25T05:42:17.053Z,21.60
2023-01-25T05:44:47.333Z,23.37
2023-01-25T05:47:16.737Z,20.47
2023-01-25T05:49:43.952Z,23.30
2023-01-25T05:52:19.690Z,22.47
2023-01-25T05:54:46.534Z,24.90
2023-01-25T05:57:14.505Z,25.40
2023-01-25T05:59:41.488Z,24.63
2023-01-25T06:02:08.534Z,22.90
2023-01-25T06:04:35.419Z,23.40
2023-01-25T06:07:02.292Z,24.20
2023-01-25T06:09:29.143Z,23.30
2023-01-25T06:11:56.004Z,25.80
2023-01-25T06:14:23.923Z,25.27
2023-01-25T06:16:50.825Z,22.10
2023-01-25T06:19:17.805Z,27.93
2023-01-25T06:21:44.650Z,24.77
2023-01-25T06:24:11.693Z,24.97
2023-01-25T06:26:38.951Z,28.17
2023-01-25T06:29:06.919Z,23.77
2023-01-25T06:31:35.036Z,22.57
2023-01-25T06:34:04.615Z,26.50
2023-01-25T06:36:31.576Z,30.30
2023-01-25T06:38:58.528Z,25.10
2023-01-25T06:41:25.552Z,28.03
2023-01-25T06:43:53.168Z,25.13
2023-01-25T06:46:20.499Z,24.27
2023-01-25T06:48:47.973Z,29.80
2023-01-25T06:51:15.730Z,28.30
2023-01-25T06:53:44.686Z,28.00
2023-01-25T06:56:17.873Z,23.63
2023-01-25T06:58:45.362Z,26.23
2023-01-25T07:01:21.343Z,23.97
2023-01-25T07:03:49.988Z,28.20
2023-01-25T07:06:17.059Z,27.93
2023-01-25T07:08:44.355Z,25.53
2023-01-25T07:11:14.023Z,26.00
2023-01-25T07:13:48.825Z,29.27
2023-01-25T07:16:20.504Z,27.97
2023-01-25T07:18:47.990Z,30.43
2023-01-25T07:21:20.524Z,33.60
2023-01-25T07:23:48.508Z,30.93
2023-01-25T07:26:21.640Z,30.10
2023-01-25T07:28:49.067Z,29.77
2023-01-25T07:31:17.757Z,29.43
2023-01-25T07:33:48.740Z,34.57
2023-01-25T07:36:16.071Z,35.10
2023-01-25T07:38:43.036Z,31.87
2023-01-25T07:41:09.964Z,40.83
2023-01-25T07:43:37.093Z,30.47
2023-01-25T07:46:06.650Z,34.07
2023-01-25T07:48:33.728Z,31.53
2023-01-25T07:51:20.750Z,30.30
2023-01-25T07:53:47.993Z,30.17
2023-01-25T07:56:14.978Z,34.60
2023-01-25T07:58:41.890Z,34.70
2023-01-25T08:01:09.680Z,31.70
2023-01-25T08:03:37.150Z,41.80
2023-01-25T08:06:05.379Z,30.83
2023-01-25T08:08:34.733Z,31.27
2023-01-25T08:11:08.699Z,37.53
2023-01-25T08:13:35.719Z,37.10
2023-01-25T08:16:02.618Z,31.90
2023-01-25T08:18:29.511Z,33.23
2023-01-25T08:20:59.425Z,32.30
2023-01-25T08:23:27.167Z,31.80
2023-01-25T08:25:54.093Z,33.70
2023-01-25T08:28:20.975Z,30.60
2023-01-25T08:30:56.842Z,32.77
2023-01-25T08:33:24.504Z,27.37
2023-01-25T08:35:57.629Z,34.13
2023-01-25T08:38:24.593Z,31.13
2023-01-25T08:40:51.913Z,32.00
2023-01-25T08:43:18.804Z,28.60
2023-01-25T08:45:45.995Z,28.97
2023-01-25T08:48:15.687Z,27.50
2023-01-25T08:50:47.429Z,28.83
2023-01-25T08:53:14.559Z,35.40
2023-01-25T08:55:43.108Z,32.57
2023-01-25T08:58:14.098Z,31.67
2023-01-25T09:00:41.752Z,33.37
2023-01-25T09:03:09.079Z,27.50
2023-01-25T09:05:37.014Z,27.37
2023-01-25T09:08:06.870Z,26.40
2023-01-25T09:10:34.896Z,25.87
2023-01-25T09:13:02.003Z,29.77
2023-01-25T09:15:29.137Z,30.50
2023-01-25T09:17:56.854Z,26.27
2023-01-25T09:20:24.591Z,24.90
2023-01-25T09:22:51.472Z,26.90
2023-01-25T09:25:18.402Z,24.60
2023-01-25T09:27:45.285Z,24.33
2023-01-25T09:30:18.231Z,24.10
2023-01-25T09:32:48.640Z,23.07
2023-01-25T09:35:15.569Z,22.47
2023-01-25T09:37:42.431Z,26.13
2023-01-25T09:40:22.738Z,24.97
2023-01-25T09:43:07.298Z,23.97
2023-01-25T09:45:36.325Z,24.27
2023-01-25T09:48:42.168Z,22.67
2023-01-25T09:51:27.461Z,27.97
2023-01-25T09:53:56.580Z,23.20
2023-01-25T09:56:32.985Z,24.03
2023-01-25T09:59:09.791Z,23.33
2023-01-25T10:01:54.158Z,27.20
2023-01-25T10:04:30.641Z,25.97
2023-01-25T10:07:03.907Z,26.50
2023-01-25T10:09:37.307Z,21.83
2023-01-25T10:12:18.906Z,24.50
2023-01-25T10:14:46.346Z,19.83
2023-01-25T10:17:33.480Z,22.57
2023-01-25T10:20:49.489Z,22.17
2023-01-25T10:23:46.737Z,24.27
2023-01-25T10:26:18.868Z,22.70
2023-01-25T10:29:10.416Z,22.30
2023-01-25T10:31:37.227Z,26.13
2023-01-25T10:34:35.482Z,25.33
2023-01-25T10:37:15.325Z,23.97
2023-01-25T10:40:06.634Z,23.97
2023-01-25T10:42:53.644Z,22.93
2023-01-25T10:45:20.659Z,24.77
2023-01-25T10:47:57.326Z,24.90
2023-01-25T10:50:42.401Z,22.40
2023-01-25T10:53:44.973Z,20.13
2023-01-25T10:56:25.995Z,17.23
2023-01-25T10:59:05.488Z,15.23
2023-01-25T11:01:35.859Z,19.80
2023-01-25T11:04:03.634Z,21.40
2023-01-25T11:06:34.971Z,23.77
2023-01-25T11:09:22.841Z,21.67
2023-01-25T11:12:17.598Z,22.63
2023-01-25T11:14:45.347Z,23.67
2023-01-25T11:17:30.470Z,21.03
2023-01-25T11:20:19.469Z,20.80
2023-01-25T11:22:54.157Z,20.03
2023-01-25T11:25:35.459Z,24.63
2023-01-25T11:28:11.547Z,19.03
2023-01-25T11:30:39.010Z,20.10
2023-01-25T11:33:14.032Z,18.33
2023-01-25T11:36:07.211Z,21.20
2023-01-25T11:38:34.177Z,21.20
2023-01-25T11:41:25.233Z,19.20
2023-01-25T11:44:13.733Z,17.43
2023-01-25T11:46:57.108Z,16.50
2023-01-25T11:49:34.764Z,19.50
2023-01-25T11:52:22.082Z,18.90
2023-01-25T11:54:52.625Z,17.93
2023-01-25T11:57:34.854Z,16.80
2023-01-25T12:00:07.876Z,17.37
2023-01-25T12:03:02.073Z,21.80
2023-01-25T12:05:44.813Z,19.40
2023-01-25T12:08:23.917Z,24.50
2023-01-25T12:11:18.580Z,21.40
2023-01-25T12:14:05.080Z,19.33
2023-01-25T12:17:22.239Z,19.00
2023-01-25T12:19:58.654Z,21.13
2023-01-25T12:22:42.360Z,19.50
2023-01-25T12:25:41.031Z,20.33
2023-01-25T12:28:20.668Z,19.87
2023-01-25T12:31:14.736Z,20.80
2023-01-25T12:34:09.041Z,23.80
2023-01-25T12:36:43.369Z,21.87
2023-01-25T12:39:24.876Z,21.53
2023-01-25T12:42:04.295Z,19.10
2023-01-25T12:44:59.225Z,22.20
2023-01-25T12:47:41.999Z,24.73
2023-01-25T12:50:17.680Z,28.20
2023-01-25T12:52:55.996Z,21.63
2023-01-25T12:55:22.941Z,23.27
2023-01-25T12:58:04.669Z,40.27
2023-01-25T13:00:53.222Z,35.10
2023-01-25T13:03:38.069Z,25.70
2023-01-25T13:06:04.892Z,24.07
2023-01-25T13:08:56.242Z,22.90
2023-01-25T13:11:31.703Z,20.10
2023-01-25T13:14:23.739Z,21.67
2023-01-25T13:17:01.427Z,21.93
2023-01-25T13:19:31.797Z,17.40
2023-01-25T13:22:00.103Z,18.37
2023-01-25T13:24:34.911Z,20.70
2023-01-25T13:27:23.396Z,21.83
2023-01-25T13:29:56.824Z,22.33
2023-01-25T13:32:29.449Z,20.10
2023-01-25T13:34:58.946Z,20.00
2023-01-25T13:37:31.639Z,19.10
2023-01-25T13:40:06.044Z,19.37
2023-01-25T13:42:35.275Z,22.33
2023-01-25T13:45:21.319Z,17.37
2023-01-25T13:48:06.192Z,20.03
2023-01-25T13:51:04.575Z,17.87
2023-01-25T13:53:35.372Z,20.70
2023-01-25T13:56:03.609Z,19.70
2023-01-25T13:58:36.576Z,18.17
2023-01-25T14:01:15.556Z,19.33
2023-01-25T14:03:51.767Z,18.80
2023-01-25T14:06:28.038Z,20.50
2023-01-25T14:08:58.249Z,19.37
2023-01-25T14:11:30.966Z,20.03
2023-01-25T14:14:16.604Z,21.03
2023-01-25T14:16:44.258Z,20.57
2023-01-25T14:19:29.978Z,22.33
2023-01-25T14:22:15.631Z,26.20
2023-01-25T14:24:42.477Z,22.20
2023-01-25T14:27:14.512Z,21.67
2023-01-25T14:29:41.970Z,20.80
2023-01-25T14:32:18.169Z,23.83
2023-01-25T14:34:45.075Z,21.97
2023-01-25T14:37:20.965Z,21.93
2023-01-25T14:39:49.896Z,19.10
2023-01-25T14:42:18.114Z,19.33
2023-01-25T14:44:45.415Z,25.83
2023-01-25T14:47:24.079Z,23.97
2023-01-25T14:49:50.983Z,48.00
2023-01-25T14:52:20.002Z,22.13
2023-01-25T14:55:00.187Z,23.07
2023-01-25T14:57:41.843Z,22.33
2023-01-25T15:00:17.764Z,20.53
2023-01-25T15:02:55.185Z,21.00
2023-01-25T15:05:27.783Z,21.00
2023-01-25T15:08:07.773Z,22.07
2023-01-25T15:10:37.267Z,22.73
2023-01-25T15:13:13.610Z,20.40
2023-01-25T15:15:58.034Z,21.90
2023-01-25T15:18:43.909Z,25.17
2023-01-25T15:21:24.108Z,22.30
2023-01-25T15:23:53.618Z,23.90
2023-01-25T15:26:22.665Z,22.40
2023-01-25T15:28:51.332Z,21.50
2023-01-25T15:31:22.840Z,25.00
2023-01-25T15:33:49.805Z,20.93
2023-01-25T15:36:17.851Z,24.40
2023-01-25T15:38:45.326Z,24.57
2023-01-25T15:41:13.806Z,27.77
2023-01-25T15:43:40.936Z,29.30
2023-01-25T15:46:19.363Z,26.00
2023-01-25T15:48:48.331Z,34.47
2023-01-25T15:51:15.877Z,28.40
2023-01-25T15:53:42.821Z,27.00
2023-01-25T15:56:21.862Z,26.57
2023-01-25T15:58:53.947Z,36.57
2023-01-25T16:01:22.389Z,29.70
2023-01-25T16:03:49.348Z,25.23
2023-01-25T16:06:25.456Z,28.27
2023-01-25T16:08:52.388Z,24.87
2023-01-25T16:11:19.239Z,23.23
2023-01-25T16:13:46.093Z,27.70
2023-01-25T16:16:19.316Z,27.53
2023-01-25T16:18:46.731Z,25.70
2023-01-25T16:21:14.036Z,29.77
2023-01-25T16:23:41.279Z,25.93
2023-01-25T16:26:16.417Z,26.83
2023-01-25T16:28:43.318Z,24.90
2023-01-25T16:31:30.254Z,28.33
2023-01-25T16:33:59.199Z,28.10
2023-01-25T16:36:26.202Z,30.97
2023-01-25T16:38:53.248Z,28.83
2023-01-25T16:41:20.263Z,28.50
2023-01-25T16:43:48.645Z,25.60
2023-01-25T16:46:23.450Z,27.53
2023-01-25T16:48:52.495Z,24.80
2023-01-25T16:51:22.558Z,26.30
2023-01-25T16:53:51.580Z,26.00
2023-01-25T16:56:23.709Z,25.70
2023-01-25T16:58:52.040Z,24.10
2023-01-25T17:01:20.395Z,24.30
2023-01-25T17:03:47.766Z,23.87
2023-01-25T17:06:20.181Z,26.47
2023-01-25T17:08:48.369Z,28.53
2023-01-25T17:11:18.845Z,23.63
2023-01-25T17:13:53.630Z,23.97
2023-01-25T17:16:21.668Z,20.73
2023-01-25T17:18:53.492Z,21.97
2023-01-25T17:21:21.224Z,22.70
2023-01-25T17:23:48.435Z,25.80
2023-01-25T17:26:17.874Z,21.47
2023-01-25T17:28:44.824Z,23.17
2023-01-25T17:31:26.281Z,23.87
2023-01-25T17:33:54.015Z,25.80
2023-01-25T17:36:21.205Z,25.83
2023-01-25T17:38:48.257Z,24.23
2023-01-25T17:41:17.188Z,23.87
2023-01-25T17:43:44.188Z,24.57
2023-01-25T17:46:22.066Z,25.23
2023-01-25T17:48:49.119Z,26.50
2023-01-25T17:51:16.035Z,27.10
2023-01-25T17:53:42.926Z,23.20
2023-01-25T17:56:12.449Z,22.87
2023-01-25T17:58:40.503Z,26.30
2023-01-25T18:01:15.685Z,24.73
2023-01-25T18:03:43.944Z,24.10
2023-01-25T18:06:18.504Z,28.83
2023-01-25T18:08:49.308Z,24.90
2023-01-25T18:11:19.461Z,23.00
2023-01-25T18:13:48.430Z,22.77
2023-01-25T18:16:16.235Z,26.33
2023-01-25T18:18:44.700Z,31.00
2023-01-25T18:21:22.046Z,23.23
2023-01-25T18:23:49.092Z,26.87
2023-01-25T18:26:37.010Z,32.40
2023-01-25T18:29:09.984Z,29.53
2023-01-25T18:31:37.342Z,26.67
2023-01-25T18:34:04.526Z,28.57
2023-01-25T18:36:31.390Z,27.13
2023-01-25T18:39:00.024Z,30.37
2023-01-25T18:41:27.161Z,32.80
2023-01-25T18:43:56.813Z,28.50
2023-01-25T18:46:23.875Z,26.70
2023-01-25T18:48:51.254Z,33.40
2023-01-25T18:51:18.154Z,28.27
2023-01-25T18:53:47.656Z,27.37
2023-01-25T18:56:20.716Z,28.77
2023-01-25T18:58:48.686Z,27.07
2023-01-25T19:01:18.439Z,31.33
2023-01-25T19:03:46.944Z,29.83
2023-01-25T19:06:15.162Z,28.13
2023-01-25T19:08:44.361Z,30.67
2023-01-25T19:11:14.139Z,34.63
2023-01-25T19:13:42.416Z,35.70
2023-01-25T19:16:17.810Z,33.00
2023-01-25T19:18:47.543Z,29.97
2023-01-25T19:21:19.737Z,29.67
2023-01-25T19:23:47.584Z,28.60
2023-01-25T19:26:17.378Z,28.63
2023-01-25T19:28:44.673Z,31.70
2023-01-25T19:31:18.294Z,34.23
2023-01-25T19:33:46.158Z,31.83
2023-01-25T19:36:16.728Z,31.17
2023-01-25T19:38:44.899Z,29.90
2023-01-25T19:41:14.506Z,29.43
2023-01-25T19:43:42.032Z,34.40
2023-01-25T19:46:14.277Z,33.07
2023-01-25T19:48:42.238Z,32.83
2023-01-25T19:51:14.993Z,29.87
2023-01-25T19:53:47.530Z,26.80
2023-01-25T19:56:16.411Z,33.67
2023-01-25T19:58:48.558Z,31.87
2023-01-25T20:01:29.174Z,34.60
2023-01-25T20:04:01.019Z,33.37
2023-01-25T20:06:28.422Z,32.57
2023-01-25T20:08:55.365Z,32.10
2023-01-25T20:11:27.589Z,31.27
2023-01-25T20:13:58.801Z,35.90
2023-01-25T20:16:27.483Z,32.30
2023-01-25T20:18:56.308Z,31.53
2023-01-25T20:21:24.492Z,29.30
2023-01-25T20:23:56.151Z,31.87
2023-01-25T20:26:25.768Z,28.10
2023-01-25T20:28:55.419Z,33.93
2023-01-25T20:31:23.831Z,35.00
2023-01-25T20:33:53.079Z,29.07
2023-01-25T20:36:20.328Z,33.53
2023-01-25T20:38:47.334Z,31.70
2023-01-25T20:41:15.769Z,32.83
2023-01-25T20:43:50.654Z,35.40
2023-01-25T20:46:18.829Z,31.53
2023-01-25T20:48:46.343Z,36.13
2023-01-25T20:51:16.986Z,28.93
2023-01-25T20:53:45.740Z,32.70
2023-01-25T20:56:14.364Z,28.33
2023-01-25T20:58:41.964Z,30.20
2023-01-25T21:01:20.320Z,31.63
2023-01-25T21:03:48.216Z,31.50
2023-01-25T21:06:16.203Z,32.83
2023-01-25T21:08:43.560Z,51.33
2023-01-25T21:11:11.768Z,37.40
2023-01-25T21:13:38.923Z,35.47
2023-01-25T21:16:07.703Z,30.73
2023-01-25T21:18:43.008Z,33.70
2023-01-25T21:21:21.180Z,33.50
2023-01-25T21:23:50.060Z,34.60
2023-01-25T21:26:26.579Z,38.50
2023-01-25T21:28:56.874Z,38.30
2023-01-25T21:31:35.226Z,35.90
2023-01-25T21:34:03.236Z,34.60
2023-01-25T21:36:30.376Z,33.63
2023-01-25T21:38:58.196Z,36.17
2023-01-25T21:41:30.827Z,39.90
2023-01-25T21:44:18.060Z,34.67
2023-01-25T21:47:04.157Z,34.73
2023-01-25T21:49:51.286Z,34.17
2023-01-25T21:52:18.136Z,34.10
2023-01-25T21:54:44.977Z,41.90
2023-01-25T21:57:11.877Z,40.27
2023-01-25T21:59:40.881Z,35.33
2023-01-25T22:02:13.218Z,41.80
2023-01-25T22:04:40.363Z,36.60
2023-01-25T22:07:08.824Z,39.00
2023-01-25T22:09:36.294Z,38.77
2023-01-25T22:12:03.231Z,39.10
2023-01-25T22:14:30.192Z,38.23
2023-01-25T22:16:57.165Z,39.03
2023-01-25T22:19:24.383Z,38.40
2023-01-25T22:21:51.219Z,38.00
2023-01-25T22:24:18.249Z,34.00
2023-01-25T22:26:53.886Z,35.53
2023-01-25T22:29:20.772Z,39.53
2023-01-25T22:31:47.676Z,33.70
2023-01-25T22:34:14.560Z,34.37
2023-01-25T22:36:41.456Z,36.20
2023-01-25T22:39:09.778Z,35.40
2023-01-25T22:41:37.736Z,32.87
2023-01-25T22:44:05.075Z,38.43
2023-01-25T22:46:32.397Z,34.67
2023-01-25T22:48:59.612Z,35.07
2023-01-25T22:51:28.946Z,31.40
2023-01-25T22:53:57.519Z,35.67
2023-01-25T22:56:27.279Z,35.17
2023-01-25T22:58:54.234Z,29.30
2023-01-25T23:01:22.094Z,35.43
2023-01-25T23:03:49.999Z,32.90
2023-01-25T23:06:19.557Z,31.30
2023-01-25T23:08:47.166Z,37.60
2023-01-25T23:11:15.451Z,35.10
2023-01-25T23:14:03.413Z,34.40
2023-01-25T23:16:30.831Z,36.03
2023-01-25T23:18:57.907Z,35.80
2023-01-25T23:21:30.017Z,36.13
2023-01-25T23:24:00.995Z,33.63
2023-01-25T23:26:29.826Z,32.97
2023-01-25T23:28:57.998Z,32.80
2023-01-25T23:31:26.289Z,34.00
2023-01-25T23:33:59.160Z,35.73
2023-01-25T23:36:28.753Z,35.63
2023-01-25T23:38:56.969Z,36.43
2023-01-25T23:41:29.089Z,31.23
2023-01-25T23:43:57.880Z,36.77
2023-01-25T23:46:25.671Z,38.50
2023-01-25T23:48:53.397Z,36.37
2023-01-25T23:51:20.715Z,34.10
2023-01-25T23:53:48.322Z,35.57
2023-01-25T23:56:20.325Z,37.03
2023-01-25T23:58:47.863Z,36.77
